ドゥアラ の空港の天気 - METARとTAF

ドゥアラ国際空港 ( FKKD / DLA ) - カメルーン ドゥアラ
飛行場実況気象(Metar)
観測時間03/06 14:00 WAT (03/06 13:00 UTC)
風向・風速北 3m/s
視程8000m
天気現象
全天の4割程度の雲 雲底高度 610m
少しの雲 雲底高度 700m
気温33℃
湿度67%
気圧1009hPa
METARFKKD 061300Z VRB05KT 8000 SCT020 FEW023CB 33/26 Q1009 NOSIG
過去の天気等 Google飛行場航空写真 Wunderground天気予報

過去48時間のMETAR

飛行場予報(TAF)
発表時間: 3/06 12:00 WAT (3/06 11:00 UTC)
予報対象時間: 6日13時 WAT ~ 7日19時 WAT
風向・風速不定 1m/s
視程8000m
全天の8割程度の雲 雲底高度 490m
少しの積乱雲 雲底高度 610m
6日23時 WAT ~ 7日1時 WAT に徐々に
全天の8割程度の雲 雲底高度 400m
少しの積乱雲 雲底高度 490m
7日6時 WAT ~ 7日10時 WAT に一時的に
視程2500m
天気現象もや
7日9時 WAT ~ 7日11時 WAT に徐々に
全天の4割程度の雲 雲底高度 490m
TAF FKKD 061100Z 0612/0718 VRB02KT 8000 BKN016 FEW020CB
BECMG 0622/0624 BKN013 FEW016CB
TEMPO 0705/0709 2500 BR
BECMG 0708/0710 SCT016